sensor_id;sensor_type;location;lat;lon;timestamp;P1;durP1;ratioP1;P2;durP2;ratioP2
70122;SDS011;57489;37.404;24.920;2023-08-21T00:01:08;5.55;;;3.08;;
70122;SDS011;57489;37.404;24.920;2023-08-21T00:06:10;8.87;;;3.60;;
70122;SDS011;57489;37.404;24.920;2023-08-21T00:11:10;7.22;;;2.70;;
70122;SDS011;57489;37.404;24.920;2023-08-21T00:16:11;7.60;;;3.73;;
70122;SDS011;57489;37.404;24.920;2023-08-21T00:21:11;5.53;;;3.07;;
70122;SDS011;57489;37.404;24.920;2023-08-21T00:26:12;8.50;;;2.80;;
70122;SDS011;57489;37.404;24.920;2023-08-21T00:31:13;9.60;;;3.00;;
70122;SDS011;57489;37.404;24.920;2023-08-21T00:36:13;5.97;;;3.03;;
70122;SDS011;57489;37.404;24.920;2023-08-21T00:41:13;7.90;;;2.80;;
70122;SDS011;57489;37.404;24.920;2023-08-21T00:46:14;7.10;;;3.00;;
70122;SDS011;57489;37.404;24.920;2023-08-21T00:51:15;6.27;;;2.90;;
70122;SDS011;57489;37.404;24.920;2023-08-21T00:56:17;7.93;;;3.15;;
70122;SDS011;57489;37.404;24.920;2023-08-21T01:01:17;7.87;;;2.93;;
70122;SDS011;57489;37.404;24.920;2023-08-21T01:06:20;5.97;;;2.88;;
70122;SDS011;57489;37.404;24.920;2023-08-21T01:11:31;6.53;;;2.77;;
70122;SDS011;57489;37.404;24.920;2023-08-21T01:16:33;7.82;;;3.10;;
70122;SDS011;57489;37.404;24.920;2023-08-21T01:21:35;6.63;;;3.03;;
70122;SDS011;57489;37.404;24.920;2023-08-21T01:26:35;5.83;;;3.00;;
70122;SDS011;57489;37.404;24.920;2023-08-21T01:31:36;8.83;;;3.57;;
70122;SDS011;57489;37.404;24.920;2023-08-21T01:36:38;10.83;;;3.47;;
70122;SDS011;57489;37.404;24.920;2023-08-21T01:41:40;8.63;;;3.00;;
70122;SDS011;57489;37.404;24.920;2023-08-21T01:46:41;7.47;;;3.80;;
70122;SDS011;57489;37.404;24.920;2023-08-21T01:51:42;7.93;;;3.00;;
70122;SDS011;57489;37.404;24.920;2023-08-21T01:56:44;8.07;;;3.47;;
70122;SDS011;57489;37.404;24.920;2023-08-21T02:01:44;9.87;;;3.90;;
70122;SDS011;57489;37.404;24.920;2023-08-21T02:06:45;7.57;;;2.87;;
70122;SDS011;57489;37.404;24.920;2023-08-21T02:11:45;8.30;;;2.90;;
70122;SDS011;57489;37.404;24.920;2023-08-21T02:16:45;8.57;;;3.60;;
70122;SDS011;57489;37.404;24.920;2023-08-21T02:21:46;7.20;;;2.77;;
70122;SDS011;57489;37.404;24.920;2023-08-21T02:26:46;7.83;;;3.40;;
70122;SDS011;57489;37.404;24.920;2023-08-21T02:31:47;7.88;;;3.35;;
70122;SDS011;57489;37.404;24.920;2023-08-21T02:36:48;10.97;;;4.43;;
70122;SDS011;57489;37.404;24.920;2023-08-21T02:41:49;9.47;;;3.87;;
70122;SDS011;57489;37.404;24.920;2023-08-21T02:46:49;12.43;;;3.60;;
70122;SDS011;57489;37.404;24.920;2023-08-21T02:51:50;8.17;;;3.90;;
70122;SDS011;57489;37.404;24.920;2023-08-21T02:56:50;10.23;;;3.33;;
70122;SDS011;57489;37.404;24.920;2023-08-21T03:01:51;9.40;;;3.90;;
70122;SDS011;57489;37.404;24.920;2023-08-21T03:06:51;11.33;;;4.60;;
70122;SDS011;57489;37.404;24.920;2023-08-21T03:11:52;8.13;;;3.63;;
70122;SDS011;57489;37.404;24.920;2023-08-21T03:16:52;8.30;;;3.70;;
70122;SDS011;57489;37.404;24.920;2023-08-21T03:21:53;9.03;;;3.67;;
70122;SDS011;57489;37.404;24.920;2023-08-21T03:26:53;7.20;;;3.50;;
70122;SDS011;57489;37.404;24.920;2023-08-21T03:31:54;9.77;;;4.83;;
70122;SDS011;57489;37.404;24.920;2023-08-21T03:36:54;9.37;;;3.73;;
70122;SDS011;57489;37.404;24.920;2023-08-21T03:41:55;11.50;;;3.90;;
70122;SDS011;57489;37.404;24.920;2023-08-21T03:46:55;9.83;;;5.23;;
70122;SDS011;57489;37.404;24.920;2023-08-21T03:51:56;11.90;;;5.07;;
70122;SDS011;57489;37.404;24.920;2023-08-21T03:56:56;8.00;;;3.83;;
70122;SDS011;57489;37.404;24.920;2023-08-21T04:01:57;11.00;;;4.00;;
70122;SDS011;57489;37.404;24.920;2023-08-21T04:06:57;13.17;;;4.53;;
70122;SDS011;57489;37.404;24.920;2023-08-21T04:11:57;10.70;;;4.30;;
70122;SDS011;57489;37.404;24.920;2023-08-21T04:16:58;10.80;;;3.87;;
70122;SDS011;57489;37.404;24.920;2023-08-21T04:21:58;8.00;;;4.07;;
70122;SDS011;57489;37.404;24.920;2023-08-21T04:26:59;10.03;;;4.43;;
70122;SDS011;57489;37.404;24.920;2023-08-21T04:31:59;10.40;;;3.83;;
70122;SDS011;57489;37.404;24.920;2023-08-21T04:37:00;9.63;;;4.07;;
70122;SDS011;57489;37.404;24.920;2023-08-21T04:42:00;8.83;;;4.30;;
70122;SDS011;57489;37.404;24.920;2023-08-21T04:47:18;12.80;;;3.20;;
70122;SDS011;57489;37.404;24.920;2023-08-21T04:52:20;8.53;;;3.67;;
70122;SDS011;57489;37.404;24.920;2023-08-21T04:57:21;11.15;;;4.05;;
70122;SDS011;57489;37.404;24.920;2023-08-21T05:02:22;8.30;;;3.60;;
70122;SDS011;57489;37.404;24.920;2023-08-21T05:07:22;11.93;;;3.60;;
70122;SDS011;57489;37.404;24.920;2023-08-21T05:12:23;7.27;;;3.43;;
70122;SDS011;57489;37.404;24.920;2023-08-21T05:17:24;6.03;;;3.50;;
70122;SDS011;57489;37.404;24.920;2023-08-21T05:22:24;10.13;;;3.53;;
70122;SDS011;57489;37.404;24.920;2023-08-21T05:27:25;9.17;;;3.30;;
70122;SDS011;57489;37.404;24.920;2023-08-21T05:32:25;10.35;;;3.72;;
70122;SDS011;57489;37.404;24.920;2023-08-21T05:37:26;10.93;;;3.67;;
70122;SDS011;57489;37.404;24.920;2023-08-21T05:42:26;9.03;;;4.17;;
70122;SDS011;57489;37.404;24.920;2023-08-21T05:47:27;9.93;;;3.73;;
70122;SDS011;57489;37.404;24.920;2023-08-21T05:52:27;13.37;;;3.90;;
70122;SDS011;57489;37.404;24.920;2023-08-21T05:57:28;10.30;;;3.67;;
70122;SDS011;57489;37.404;24.920;2023-08-21T06:02:28;9.87;;;3.83;;
70122;SDS011;57489;37.404;24.920;2023-08-21T06:07:29;12.13;;;3.60;;
70122;SDS011;57489;37.404;24.920;2023-08-21T06:12:29;8.83;;;3.57;;
70122;SDS011;57489;37.404;24.920;2023-08-21T06:17:29;9.60;;;3.43;;
70122;SDS011;57489;37.404;24.920;2023-08-21T06:22:30;8.87;;;3.53;;
70122;SDS011;57489;37.404;24.920;2023-08-21T06:27:30;6.53;;;3.10;;
70122;SDS011;57489;37.404;24.920;2023-08-21T06:32:31;9.27;;;3.47;;
70122;SDS011;57489;37.404;24.920;2023-08-21T06:37:31;9.17;;;3.33;;
70122;SDS011;57489;37.404;24.920;2023-08-21T06:42:32;9.43;;;4.03;;
70122;SDS011;57489;37.404;24.920;2023-08-21T06:47:32;6.63;;;2.77;;
70122;SDS011;57489;37.404;24.920;2023-08-21T06:52:33;9.37;;;3.50;;
70122;SDS011;57489;37.404;24.920;2023-08-21T06:57:33;8.83;;;3.20;;
70122;SDS011;57489;37.404;24.920;2023-08-21T07:02:33;7.35;;;2.90;;
70122;SDS011;57489;37.404;24.920;2023-08-21T07:07:34;12.33;;;3.43;;
70122;SDS011;57489;37.404;24.920;2023-08-21T07:12:34;7.93;;;3.10;;
70122;SDS011;57489;37.404;24.920;2023-08-21T07:17:35;9.33;;;3.73;;
70122;SDS011;57489;37.404;24.920;2023-08-21T07:22:35;9.73;;;3.37;;
70122;SDS011;57489;37.404;24.920;2023-08-21T07:27:36;8.63;;;3.20;;
70122;SDS011;57489;37.404;24.920;2023-08-21T07:32:36;10.63;;;3.60;;
70122;SDS011;57489;37.404;24.920;2023-08-21T07:37:37;8.30;;;3.45;;
70122;SDS011;57489;37.404;24.920;2023-08-21T07:42:38;10.97;;;3.20;;
70122;SDS011;57489;37.404;24.920;2023-08-21T07:47:38;11.43;;;3.87;;
70122;SDS011;57489;37.404;24.920;2023-08-21T07:52:39;11.63;;;5.10;;
70122;SDS011;57489;37.404;24.920;2023-08-21T07:57:39;13.87;;;3.83;;
70122;SDS011;57489;37.404;24.920;2023-08-21T08:02:39;7.77;;;3.33;;
70122;SDS011;57489;37.404;24.920;2023-08-21T08:07:40;7.87;;;3.43;;
70122;SDS011;57489;37.404;24.920;2023-08-21T08:12:41;9.43;;;3.53;;
70122;SDS011;57489;37.404;24.920;2023-08-21T08:17:42;9.83;;;3.00;;
70122;SDS011;57489;37.404;24.920;2023-08-21T08:22:42;10.57;;;3.57;;
70122;SDS011;57489;37.404;24.920;2023-08-21T08:27:43;9.18;;;3.40;;
70122;SDS011;57489;37.404;24.920;2023-08-21T08:32:44;11.93;;;3.23;;
70122;SDS011;57489;37.404;24.920;2023-08-21T08:37:44;7.60;;;3.63;;
70122;SDS011;57489;37.404;24.920;2023-08-21T08:42:45;13.97;;;3.67;;
70122;SDS011;57489;37.404;24.920;2023-08-21T08:47:45;8.77;;;2.87;;
70122;SDS011;57489;37.404;24.920;2023-08-21T08:52:46;14.20;;;4.03;;
70122;SDS011;57489;37.404;24.920;2023-08-21T08:57:47;8.47;;;3.67;;
70122;SDS011;57489;37.404;24.920;2023-08-21T09:02:47;8.55;;;3.60;;
70122;SDS011;57489;37.404;24.920;2023-08-21T09:08:01;12.10;;;3.83;;
70122;SDS011;57489;37.404;24.920;2023-08-21T09:13:12;9.77;;;3.63;;
70122;SDS011;57489;37.404;24.920;2023-08-21T09:18:14;8.97;;;3.43;;
70122;SDS011;57489;37.404;24.920;2023-08-21T09:23:16;10.93;;;4.13;;
70122;SDS011;57489;37.404;24.920;2023-08-21T09:28:20;7.45;;;3.85;;
70122;SDS011;57489;37.404;24.920;2023-08-21T09:33:21;11.07;;;4.03;;
70122;SDS011;57489;37.404;24.920;2023-08-21T09:38:25;8.82;;;3.60;;
70122;SDS011;57489;37.404;24.920;2023-08-21T09:43:26;10.60;;;2.90;;
70122;SDS011;57489;37.404;24.920;2023-08-21T09:48:27;9.90;;;3.00;;
70122;SDS011;57489;37.404;24.920;2023-08-21T09:53:27;10.23;;;2.75;;
70122;SDS011;57489;37.404;24.920;2023-08-21T09:58:28;6.23;;;3.07;;
70122;SDS011;57489;37.404;24.920;2023-08-21T10:03:29;9.13;;;3.10;;
70122;SDS011;57489;37.404;24.920;2023-08-21T10:08:30;8.00;;;2.80;;
70122;SDS011;57489;37.404;24.920;2023-08-21T10:13:32;7.50;;;2.83;;
70122;SDS011;57489;37.404;24.920;2023-08-21T10:18:36;8.17;;;4.00;;
70122;SDS011;57489;37.404;24.920;2023-08-21T10:23:37;6.47;;;2.95;;
70122;SDS011;57489;37.404;24.920;2023-08-21T10:33:49;9.23;;;2.87;;
70122;SDS011;57489;37.404;24.920;2023-08-21T10:38:58;10.37;;;2.90;;
70122;SDS011;57489;37.404;24.920;2023-08-21T10:43:59;6.20;;;3.03;;
70122;SDS011;57489;37.404;24.920;2023-08-21T10:48:59;9.83;;;3.37;;
70122;SDS011;57489;37.404;24.920;2023-08-21T10:54:10;7.33;;;2.97;;
70122;SDS011;57489;37.404;24.920;2023-08-21T10:59:11;9.70;;;3.27;;
70122;SDS011;57489;37.404;24.920;2023-08-21T11:04:11;9.90;;;3.57;;
70122;SDS011;57489;37.404;24.920;2023-08-21T11:09:12;8.25;;;2.97;;
70122;SDS011;57489;37.404;24.920;2023-08-21T11:14:13;16.70;;;3.43;;
70122;SDS011;57489;37.404;24.920;2023-08-21T11:19:13;6.73;;;3.23;;
70122;SDS011;57489;37.404;24.920;2023-08-21T11:24:14;9.43;;;3.50;;
70122;SDS011;57489;37.404;24.920;2023-08-21T11:29:14;6.77;;;3.20;;
70122;SDS011;57489;37.404;24.920;2023-08-21T11:34:19;11.83;;;3.47;;
70122;SDS011;57489;37.404;24.920;2023-08-21T11:39:19;9.67;;;2.83;;
70122;SDS011;57489;37.404;24.920;2023-08-21T11:44:20;6.73;;;2.67;;
70122;SDS011;57489;37.404;24.920;2023-08-21T11:49:20;8.13;;;3.20;;
70122;SDS011;57489;37.404;24.920;2023-08-21T11:54:20;10.63;;;3.40;;
70122;SDS011;57489;37.404;24.920;2023-08-21T11:59:22;9.10;;;3.27;;
70122;SDS011;57489;37.404;24.920;2023-08-21T12:04:23;7.93;;;3.33;;
70122;SDS011;57489;37.404;24.920;2023-08-21T12:09:24;12.73;;;3.30;;
70122;SDS011;57489;37.404;24.920;2023-08-21T12:14:25;8.20;;;3.37;;
70122;SDS011;57489;37.404;24.920;2023-08-21T12:19:27;10.30;;;3.67;;
70122;SDS011;57489;37.404;24.920;2023-08-21T12:24:28;11.77;;;2.97;;
70122;SDS011;57489;37.404;24.920;2023-08-21T12:29:28;12.87;;;3.60;;
70122;SDS011;57489;37.404;24.920;2023-08-21T12:34:28;9.93;;;3.30;;
70122;SDS011;57489;37.404;24.920;2023-08-21T12:39:29;10.27;;;3.53;;
70122;SDS011;57489;37.404;24.920;2023-08-21T12:44:30;10.93;;;3.53;;
70122;SDS011;57489;37.404;24.920;2023-08-21T12:49:30;12.00;;;3.20;;
70122;SDS011;57489;37.404;24.920;2023-08-21T12:54:31;9.53;;;3.33;;
70122;SDS011;57489;37.404;24.920;2023-08-21T12:59:31;10.43;;;3.70;;
70122;SDS011;57489;37.404;24.920;2023-08-21T13:04:32;19.80;;;4.32;;
70122;SDS011;57489;37.404;24.920;2023-08-21T13:09:32;9.10;;;3.67;;
70122;SDS011;57489;37.404;24.920;2023-08-21T13:14:33;12.23;;;3.17;;
70122;SDS011;57489;37.404;24.920;2023-08-21T13:19:34;9.60;;;3.60;;
70122;SDS011;57489;37.404;24.920;2023-08-21T13:24:34;6.53;;;3.40;;
70122;SDS011;57489;37.404;24.920;2023-08-21T13:29:35;11.33;;;3.50;;
70122;SDS011;57489;37.404;24.920;2023-08-21T13:34:35;9.43;;;4.17;;
70122;SDS011;57489;37.404;24.920;2023-08-21T13:39:36;10.37;;;3.97;;
70122;SDS011;57489;37.404;24.920;2023-08-21T13:44:36;8.60;;;3.27;;
70122;SDS011;57489;37.404;24.920;2023-08-21T13:49:37;11.67;;;3.40;;
70122;SDS011;57489;37.404;24.920;2023-08-21T13:54:37;11.30;;;3.80;;
70122;SDS011;57489;37.404;24.920;2023-08-21T13:59:38;11.23;;;3.17;;
70122;SDS011;57489;37.404;24.920;2023-08-21T14:04:38;7.47;;;3.30;;
70122;SDS011;57489;37.404;24.920;2023-08-21T14:09:39;10.73;;;3.30;;
70122;SDS011;57489;37.404;24.920;2023-08-21T14:14:39;10.03;;;3.83;;
70122;SDS011;57489;37.404;24.920;2023-08-21T14:19:39;7.53;;;3.13;;
70122;SDS011;57489;37.404;24.920;2023-08-21T14:24:40;8.33;;;2.80;;
70122;SDS011;57489;37.404;24.920;2023-08-21T14:29:44;7.23;;;2.70;;
70122;SDS011;57489;37.404;24.920;2023-08-21T14:34:44;8.70;;;2.65;;
70122;SDS011;57489;37.404;24.920;2023-08-21T14:39:45;9.00;;;3.40;;
70122;SDS011;57489;37.404;24.920;2023-08-21T14:44:45;6.43;;;3.50;;
70122;SDS011;57489;37.404;24.920;2023-08-21T14:49:46;8.83;;;2.60;;
70122;SDS011;57489;37.404;24.920;2023-08-21T14:54:55;11.40;;;3.20;;
70122;SDS011;57489;37.404;24.920;2023-08-21T14:59:56;9.30;;;2.85;;
70122;SDS011;57489;37.404;24.920;2023-08-21T15:04:56;8.80;;;3.23;;
70122;SDS011;57489;37.404;24.920;2023-08-21T15:09:56;7.93;;;3.43;;
70122;SDS011;57489;37.404;24.920;2023-08-21T16:13:43;8.77;;;3.00;;
70122;SDS011;57489;37.404;24.920;2023-08-21T16:18:44;7.17;;;3.20;;
70122;SDS011;57489;37.404;24.920;2023-08-21T16:23:44;7.47;;;2.87;;
70122;SDS011;57489;37.404;24.920;2023-08-21T16:28:45;6.70;;;3.10;;
70122;SDS011;57489;37.404;24.920;2023-08-21T16:33:45;8.57;;;3.10;;
70122;SDS011;57489;37.404;24.920;2023-08-21T16:38:46;7.83;;;2.83;;
70122;SDS011;57489;37.404;24.920;2023-08-21T16:43:46;6.63;;;3.07;;
70122;SDS011;57489;37.404;24.920;2023-08-21T16:48:47;9.07;;;3.13;;
70122;SDS011;57489;37.404;24.920;2023-08-21T16:53:47;9.43;;;3.43;;
70122;SDS011;57489;37.404;24.920;2023-08-21T16:58:47;9.82;;;2.90;;
70122;SDS011;57489;37.404;24.920;2023-08-21T17:03:48;7.67;;;3.60;;
70122;SDS011;57489;37.404;24.920;2023-08-21T17:08:48;6.67;;;2.40;;
70122;SDS011;57489;37.404;24.920;2023-08-21T17:13:49;6.10;;;3.20;;
70122;SDS011;57489;37.404;24.920;2023-08-21T17:18:49;8.97;;;3.30;;
70122;SDS011;57489;37.404;24.920;2023-08-21T17:23:50;7.70;;;2.67;;
70122;SDS011;57489;37.404;24.920;2023-08-21T17:28:50;6.53;;;2.87;;
70122;SDS011;57489;37.404;24.920;2023-08-21T17:33:51;8.17;;;2.80;;
70122;SDS011;57489;37.404;24.920;2023-08-21T17:38:51;7.90;;;2.77;;
70122;SDS011;57489;37.404;24.920;2023-08-21T17:43:52;8.47;;;2.63;;
70122;SDS011;57489;37.404;24.920;2023-08-21T17:48:52;6.18;;;2.45;;
70122;SDS011;57489;37.404;24.920;2023-08-21T17:53:53;10.00;;;2.70;;
70122;SDS011;57489;37.404;24.920;2023-08-21T17:58:53;8.00;;;2.93;;
70122;SDS011;57489;37.404;24.920;2023-08-21T18:03:54;8.70;;;2.60;;
70122;SDS011;57489;37.404;24.920;2023-08-21T18:08:54;7.67;;;2.53;;
70122;SDS011;57489;37.404;24.920;2023-08-21T18:13:54;8.43;;;2.30;;
70122;SDS011;57489;37.404;24.920;2023-08-21T18:18:55;7.67;;;2.70;;
70122;SDS011;57489;37.404;24.920;2023-08-21T18:23:55;11.07;;;2.80;;
70122;SDS011;57489;37.404;24.920;2023-08-21T18:28:56;7.37;;;2.43;;
70122;SDS011;57489;37.404;24.920;2023-08-21T18:33:56;7.17;;;2.60;;
70122;SDS011;57489;37.404;24.920;2023-08-21T18:38:57;9.10;;;2.90;;
70122;SDS011;57489;37.404;24.920;2023-08-21T18:43:58;6.90;;;2.40;;
70122;SDS011;57489;37.404;24.920;2023-08-21T18:48:58;7.70;;;2.60;;
70122;SDS011;57489;37.404;24.920;2023-08-21T18:53:59;8.83;;;2.23;;
70122;SDS011;57489;37.404;24.920;2023-08-21T18:59:00;6.83;;;2.30;;
70122;SDS011;57489;37.404;24.920;2023-08-21T19:04:00;9.43;;;2.80;;
70122;SDS011;57489;37.404;24.920;2023-08-21T19:09:01;9.83;;;2.80;;
70122;SDS011;57489;37.404;24.920;2023-08-21T19:14:01;8.63;;;2.20;;
70122;SDS011;57489;37.404;24.920;2023-08-21T19:19:02;8.60;;;2.27;;
70122;SDS011;57489;37.404;24.920;2023-08-21T19:24:02;10.07;;;3.20;;
70122;SDS011;57489;37.404;24.920;2023-08-21T19:29:03;7.50;;;3.13;;
70122;SDS011;57489;37.404;24.920;2023-08-21T19:34:03;9.00;;;2.63;;
70122;SDS011;57489;37.404;24.920;2023-08-21T19:39:04;9.43;;;2.47;;
70122;SDS011;57489;37.404;24.920;2023-08-21T19:44:04;5.63;;;2.33;;
70122;SDS011;57489;37.404;24.920;2023-08-21T19:49:04;8.50;;;3.00;;
70122;SDS011;57489;37.404;24.920;2023-08-21T19:54:05;8.87;;;2.60;;
70122;SDS011;57489;37.404;24.920;2023-08-21T19:59:05;6.80;;;2.53;;
70122;SDS011;57489;37.404;24.920;2023-08-21T20:04:06;11.00;;;2.70;;
70122;SDS011;57489;37.404;24.920;2023-08-21T20:09:07;5.07;;;2.13;;
70122;SDS011;57489;37.404;24.920;2023-08-21T20:14:07;8.13;;;2.70;;
70122;SDS011;57489;37.404;24.920;2023-08-21T20:19:08;6.00;;;2.50;;
70122;SDS011;57489;37.404;24.920;2023-08-21T20:24:09;6.00;;;2.72;;
70122;SDS011;57489;37.404;24.920;2023-08-21T20:29:09;6.37;;;2.47;;
70122;SDS011;57489;37.404;24.920;2023-08-21T20:34:10;8.60;;;2.67;;
70122;SDS011;57489;37.404;24.920;2023-08-21T20:39:10;8.57;;;2.83;;
70122;SDS011;57489;37.404;24.920;2023-08-21T20:44:11;4.50;;;2.37;;
70122;SDS011;57489;37.404;24.920;2023-08-21T20:49:12;9.30;;;2.47;;
70122;SDS011;57489;37.404;24.920;2023-08-21T20:54:12;7.40;;;2.10;;
70122;SDS011;57489;37.404;24.920;2023-08-21T20:59:13;9.47;;;3.13;;
70122;SDS011;57489;37.404;24.920;2023-08-21T21:04:13;6.43;;;2.80;;
70122;SDS011;57489;37.404;24.920;2023-08-21T21:09:13;10.17;;;3.00;;
70122;SDS011;57489;37.404;24.920;2023-08-21T21:14:14;5.63;;;2.57;;
70122;SDS011;57489;37.404;24.920;2023-08-21T21:19:15;5.45;;;2.58;;
70122;SDS011;57489;37.404;24.920;2023-08-21T21:24:16;7.90;;;2.53;;
70122;SDS011;57489;37.404;24.920;2023-08-21T21:29:17;5.83;;;2.83;;
70122;SDS011;57489;37.404;24.920;2023-08-21T21:34:17;7.97;;;2.27;;
70122;SDS011;57489;37.404;24.920;2023-08-21T21:39:18;5.93;;;2.70;;
70122;SDS011;57489;37.404;24.920;2023-08-21T21:44:18;6.17;;;2.37;;
70122;SDS011;57489;37.404;24.920;2023-08-21T21:49:18;8.03;;;2.77;;
70122;SDS011;57489;37.404;24.920;2023-08-21T21:54:19;7.57;;;2.38;;
70122;SDS011;57489;37.404;24.920;2023-08-21T21:59:20;8.23;;;3.53;;
70122;SDS011;57489;37.404;24.920;2023-08-21T22:04:20;6.20;;;2.53;;
70122;SDS011;57489;37.404;24.920;2023-08-21T22:09:20;6.00;;;2.50;;
70122;SDS011;57489;37.404;24.920;2023-08-21T22:14:21;5.97;;;2.37;;
70122;SDS011;57489;37.404;24.920;2023-08-21T22:19:21;8.27;;;2.53;;
70122;SDS011;57489;37.404;24.920;2023-08-21T22:24:22;8.23;;;2.30;;
70122;SDS011;57489;37.404;24.920;2023-08-21T22:29:22;6.43;;;2.60;;
70122;SDS011;57489;37.404;24.920;2023-08-21T22:34:23;8.80;;;2.90;;
70122;SDS011;57489;37.404;24.920;2023-08-21T22:39:23;5.63;;;2.50;;
70122;SDS011;57489;37.404;24.920;2023-08-21T22:44:24;7.57;;;2.63;;
70122;SDS011;57489;37.404;24.920;2023-08-21T22:49:25;6.00;;;2.87;;
70122;SDS011;57489;37.404;24.920;2023-08-21T22:54:26;5.93;;;2.25;;
70122;SDS011;57489;37.404;24.920;2023-08-21T22:59:26;8.03;;;2.10;;
70122;SDS011;57489;37.404;24.920;2023-08-21T23:04:26;8.43;;;2.33;;
70122;SDS011;57489;37.404;24.920;2023-08-21T23:09:27;9.43;;;2.13;;
70122;SDS011;57489;37.404;24.920;2023-08-21T23:14:29;6.73;;;2.07;;
70122;SDS011;57489;37.404;24.920;2023-08-21T23:19:30;10.30;;;2.22;;
70122;SDS011;57489;37.404;24.920;2023-08-21T23:24:31;8.32;;;2.30;;
70122;SDS011;57489;37.404;24.920;2023-08-21T23:29:31;5.20;;;1.90;;
70122;SDS011;57489;37.404;24.920;2023-08-21T23:34:32;10.07;;;2.60;;
70122;SDS011;57489;37.404;24.920;2023-08-21T23:39:32;7.27;;;2.30;;
70122;SDS011;57489;37.404;24.920;2023-08-21T23:44:33;6.47;;;2.63;;
70122;SDS011;57489;37.404;24.920;2023-08-21T23:49:33;7.83;;;1.80;;
70122;SDS011;57489;37.404;24.920;2023-08-21T23:54:34;7.77;;;2.60;;
70122;SDS011;57489;37.404;24.920;2023-08-21T23:59:34;6.73;;;2.20;;
